TimeEDT,TemperatureF,Dew PointF,Humidity,Sea Level PressureIn,VisibilityMPH,Wind Direction,Wind SpeedMPH,Gust SpeedMPH,PrecipitationIn,Events,Conditions,WindDirDegrees,DateUTC
12:00 AM,64.4,59.0,83,30.02,10.0,Calm,Calm,-,N/A,,Overcast,0,2013-07-27 04:00:00
12:52 AM,64.0,57.9,80,30.02,10.0,Calm,Calm,-,N/A,,Overcast,0,2013-07-27 04:52:00
1:52 AM,63.0,57.9,84,30.01,10.0,Calm,Calm,-,N/A,,Overcast,0,2013-07-27 05:52:00
2:52 AM,62.1,57.9,86,30.02,10.0,Calm,Calm,-,N/A,,Overcast,0,2013-07-27 06:52:00
3:52 AM,62.1,57.0,84,30.02,10.0,Calm,Calm,-,N/A,,Overcast,0,2013-07-27 07:52:00
4:52 AM,62.1,57.0,84,30.03,10.0,Calm,Calm,-,N/A,,Overcast,0,2013-07-27 08:52:00
5:52 AM,62.1,57.0,84,30.04,10.0,Calm,Calm,-,N/A,,Overcast,0,2013-07-27 09:52:00
6:52 AM,63.0,57.9,84,30.04,10.0,Calm,Calm,-,N/A,,Overcast,0,2013-07-27 10:52:00
7:16 AM,62.6,57.2,82,30.06,10.0,West,3.5,-,N/A,,Overcast,270,2013-07-27 11:16:00
7:52 AM,64.0,57.9,80,30.07,10.0,Calm,Calm,-,N/A,,Overcast,0,2013-07-27 11:52:00
8:52 AM,66.9,57.9,73,30.06,10.0,Calm,Calm,-,N/A,,Mostly Cloudy,0,2013-07-27 12:52:00
9:52 AM,72.0,57.9,61,30.05,10.0,Calm,Calm,-,N/A,,Scattered Clouds,0,2013-07-27 13:52:00
10:03 AM,71.6,57.2,60,30.06,10.0,Calm,Calm,-,N/A,,Mostly Cloudy,0,2013-07-27 14:03:00
10:16 AM,71.6,57.2,60,30.06,10.0,Calm,Calm,-,N/A,,Scattered Clouds,0,2013-07-27 14:16:00
10:52 AM,73.9,59.0,59,30.05,10.0,Calm,Calm,-,N/A,,Mostly Cloudy,0,2013-07-27 14:52:00
11:52 AM,75.9,57.9,54,30.05,10.0,West,5.8,-,N/A,,Clear,270,2013-07-27 15:52:00
12:52 PM,78.1,54.0,43,30.03,10.0,Calm,Calm,-,N/A,,Clear,0,2013-07-27 16:52:00
1:52 PM,79.0,54.0,42,30.01,10.0,SW,3.5,-,N/A,,Clear,220,2013-07-27 17:52:00
2:52 PM,80.1,55.9,43,30.01,10.0,WNW,6.9,-,N/A,,Clear,300,2013-07-27 18:52:00
3:52 PM,81.0,55.9,42,30.00,10.0,West,3.5,-,N/A,,Clear,280,2013-07-27 19:52:00
4:52 PM,80.1,54.0,40,30.00,10.0,WSW,6.9,-,N/A,,Clear,240,2013-07-27 20:52:00
5:52 PM,78.1,55.0,45,30.00,10.0,WSW,4.6,-,N/A,,Clear,250,2013-07-27 21:52:00
6:52 PM,75.9,57.0,52,29.99,10.0,Calm,Calm,-,N/A,,Clear,0,2013-07-27 22:52:00
7:52 PM,71.1,62.1,73,29.99,10.0,Calm,Calm,-,N/A,,Clear,0,2013-07-27 23:52:00
8:52 PM,66.9,62.1,84,30.01,10.0,Calm,Calm,-,N/A,,Clear,0,2013-07-28 00:52:00
9:52 PM,64.0,59.0,84,30.02,10.0,Calm,Calm,-,N/A,,Clear,0,2013-07-28 01:52:00
10:52 PM,63.0,57.9,84,30.02,10.0,Calm,Calm,-,N/A,,Clear,0,2013-07-28 02:52:00
11:52 PM,59.0,55.9,90,30.01,10.0,Calm,Calm,-,N/A,,Clear,0,2013-07-28 03:52:00